Time;durP1;ratioP1;P1;durP2;ratioP2;P2;SDS_P1;SDS_P2;PMS_P1;PMS_P2;Temp;Humidity;BMP_temperature;BMP_pressure;BME280_temperature;BME280_humidity;BME280_pressure;Samples;Min_cycle;Max_cycle;Signal;HPM_P1;HPM_P2
2021/05/17 04:17:16;;;;;;;2.20;0.70;;;;;;;10.08;74.08;97790.94;5064840;23;20474;-75
2021/05/17 04:19:41;;;;;;;6.25;0.80;;;;;;;10.10;74.71;97788.28;4918538;29;20044;-76
2021/05/17 04:22:06;;;;;;;1.15;0.60;;;;;;;10.12;74.10;97786.53;4918321;29;20031;-76
2021/05/17 04:24:32;;;;;;;1.65;0.63;;;;;;;10.15;74.13;97787.25;4918465;29;20473;-76
2021/05/17 04:26:57;;;;;;;1.73;0.70;;;;;;;10.13;74.37;97793.38;4918093;29;20024;-76
2021/05/17 04:29:22;;;;;;;1.17;0.80;;;;;;;10.13;74.79;97794.22;4944985;23;20469;-77
2021/05/17 04:31:48;;;;;;;5.28;1.55;;;;;;;10.13;74.27;97793.38;4899387;29;20028;-75
2021/05/17 04:34:14;;;;;;;1.35;0.90;;;;;;;10.19;74.77;97796.63;4899300;29;20027;-77
2021/05/17 04:36:39;;;;;;;12.93;7.28;;;;;;;10.37;74.35;97797.78;4899017;29;20021;-75
2021/05/17 04:39:05;;;;;;;3.22;0.75;;;;;;;10.45;73.56;97794.97;4875819;29;20044;-75
2021/05/17 04:41:30;;;;;;;2.85;1.10;;;;;;;10.53;73.10;97796.38;4899256;29;20040;-75
2021/05/17 04:43:55;;;;;;;2.65;0.63;;;;;;;10.68;72.01;97802.78;4899230;29;20024;-77
2021/05/17 04:46:21;;;;;;;3.45;0.70;;;;;;;10.64;72.47;97801.22;4882261;29;20443;-77
2021/05/17 04:48:49;;;;;;;2.22;0.80;;;;;;;10.70;72.00;97797.56;4897945;29;20024;-78
2021/05/17 04:51:20;;;;;;;4.25;0.60;;;;;;;10.87;71.86;97800.41;4897358;29;20039;-75
2021/05/17 04:53:46;;;;;;;3.97;1.42;;;;;;;10.73;71.71;97800.03;4897176;29;20097;-75
2021/05/17 04:56:11;;;;;;;1.00;0.68;;;;;;;10.73;71.81;97800.03;4897035;29;20025;-76
2021/05/17 04:58:37;;;;;;;1.42;0.60;;;;;;;10.82;71.24;97802.31;4896977;29;20032;-76
2021/05/17 05:01:03;;;;;;;1.50;0.70;;;;;;;10.82;71.42;97805.75;4896883;29;20028;-76
2021/05/17 05:03:29;;;;;;;1.25;0.70;;;;;;;10.74;70.73;97807.78;4897231;29;20502;-76
2021/05/17 05:05:56;;;;;;;1.77;0.73;;;;;;;10.89;70.71;97806.41;4898748;29;20066;-76
2021/05/17 05:08:21;;;;;;;2.15;0.60;;;;;;;10.82;70.67;97815.28;4898580;29;20035;-77
2021/05/17 05:10:47;;;;;;;4.80;2.15;;;;;;;11.08;69.64;97814.38;4898714;29;20032;-76
2021/05/17 05:13:12;;;;;;;2.72;1.00;;;;;;;11.03;69.95;97813.69;4898648;29;20036;-78
2021/05/17 05:15:37;;;;;;;1.13;0.60;;;;;;;11.09;70.42;97823.00;4898664;29;20028;-77
2021/05/17 05:18:03;;;;;;;0.57;0.55;;;;;;;11.06;70.62;97819.59;4897974;29;20025;-78
2021/05/17 05:20:30;;;;;;;1.38;0.80;;;;;;;10.92;70.37;97826.16;4898353;29;20080;-77
2021/05/17 05:22:55;;;;;;;3.50;0.60;;;;;;;11.07;69.83;97826.50;4898572;29;20103;-77
2021/05/17 05:25:22;;;;;;;1.95;0.80;;;;;;;11.05;69.70;97832.63;4898447;29;20500;-77
2021/05/17 05:27:51;;;;;;;4.93;1.92;;;;;;;10.98;69.78;97832.00;4898262;29;20057;-78
2021/05/17 05:30:43;;;;;;;3.58;1.00;;;;;;;11.03;69.81;97830.09;4898234;29;20032;-74
2021/05/17 05:33:17;;;;;;;5.07;0.90;;;;;;;11.10;69.60;97835.06;4897038;29;20534;-78
2021/05/17 05:35:44;;;;;;;3.20;0.82;;;;;;;11.07;69.34;97839.47;4898220;29;20111;-76
2021/05/17 05:38:10;;;;;;;1.48;0.93;;;;;;;11.45;68.20;97837.22;4897901;29;20032;-76
2021/05/17 05:40:35;;;;;;;1.58;0.70;;;;;;;11.74;67.05;97830.94;4898175;29;20080;-76
2021/05/17 05:43:01;;;;;;;6.50;1.10;;;;;;;11.64;66.78;97836.53;4898183;29;20100;-78
2021/05/17 05:45:26;;;;;;;3.38;0.85;;;;;;;11.82;66.25;97833.28;4897960;29;20387;-76
2021/05/17 05:47:51;;;;;;;2.83;1.10;;;;;;;11.98;66.04;97834.38;4897904;29;20033;-76
2021/05/17 05:50:17;;;;;;;3.72;0.80;;;;;;;12.00;65.52;97832.59;4897884;29;20104;-76
2021/05/17 05:52:42;;;;;;;3.00;0.68;;;;;;;11.99;65.68;97836.09;4897974;29;20052;-76
2021/05/17 05:55:08;;;;;;;4.10;0.70;;;;;;;11.94;66.18;97840.63;4897924;29;20490;-76
2021/05/17 05:57:41;;;;;;;1.58;0.70;;;;;;;11.65;66.29;97838.22;4897667;29;20486;-78
2021/05/17 06:00:08;;;;;;;0.68;0.50;;;;;;;11.66;66.21;97845.13;4897766;29;20439;-78
2021/05/17 06:02:34;;;;;;;3.10;0.55;;;;;;;12.04;65.04;97846.28;4897745;29;20116;-78
2021/05/17 06:04:59;;;;;;;0.82;0.50;;;;;;;12.04;64.64;97852.34;4897710;29;20479;-77
2021/05/17 06:07:24;;;;;;;0.50;0.50;;;;;;;11.96;65.71;97845.75;4897549;29;20028;-77
2021/05/17 06:09:50;;;;;;;0.98;0.95;;;;;;;11.77;66.45;97853.34;4897489;29;20027;-78
2021/05/17 06:12:16;;;;;;;1.92;0.70;;;;;;;11.55;66.36;97848.94;4897556;29;20494;-76
2021/05/17 06:14:41;;;;;;;0.65;0.60;;;;;;;11.56;66.24;97855.84;4897487;29;20024;-77
2021/05/17 06:17:07;;;;;;;0.57;0.57;;;;;;;11.49;65.92;97859.53;4897343;29;20032;-77
2021/05/17 06:19:32;;;;;;;0.90;0.60;;;;;;;11.14;67.07;97853.03;4897388;29;20454;-75
2021/05/17 06:21:59;;;;;;;1.52;0.80;;;;;;;11.12;67.92;97856.56;4897318;29;20025;-74
2021/05/17 06:24:24;;;;;;;1.45;0.70;;;;;;;11.09;67.24;97859.28;4897533;29;20032;-76
2021/05/17 06:26:50;;;;;;;0.60;0.60;;;;;;;11.14;67.33;97863.41;4891065;29;20024;-77
2021/05/17 06:29:16;;;;;;;0.68;0.50;;;;;;;11.29;66.95;97864.63;4899689;29;20024;-76
2021/05/17 06:31:45;;;;;;;0.77;0.50;;;;;;;11.06;66.24;97868.00;4897006;29;20026;-76
2021/05/17 06:34:11;;;;;;;0.55;0.50;;;;;;;11.17;66.23;97867.63;4896526;29;20039;-76
2021/05/17 06:36:36;;;;;;;0.85;0.60;;;;;;;11.11;65.92;97867.84;4896355;29;20040;-77
2021/05/17 06:39:05;;;;;;;1.83;1.00;;;;;;;11.19;66.17;97877.06;4896982;29;20064;-77
2021/05/17 06:41:31;;;;;;;1.00;0.68;;;;;;;11.26;66.14;97880.28;4896897;29;20043;-74
2021/05/17 06:43:56;;;;;;;1.10;1.00;;;;;;;11.41;66.99;97877.16;4897131;29;20032;-76
2021/05/17 06:46:22;;;;;;;1.08;0.60;;;;;;;11.42;65.81;97881.44;4895866;29;20506;-77
2021/05/17 06:48:47;;;;;;;0.65;0.60;;;;;;;11.51;67.20;97888.03;4896726;29;20480;-78
2021/05/17 06:51:18;;;;;;;2.08;0.77;;;;;;;11.39;65.74;97881.53;4896914;29;20037;-78
2021/05/17 06:53:45;;;;;;;3.47;0.70;;;;;;;11.46;66.05;97890.81;4896846;29;20048;-76
2021/05/17 06:56:28;;;;;;;0.88;0.47;;;;;;;11.48;65.66;97889.00;4896611;29;20036;-76
2021/05/17 06:58:58;;;;;;;3.35;1.02;;;;;;;11.42;65.97;97898.75;4895858;29;20048;-77
2021/05/17 07:01:25;;;;;;;3.58;0.60;;;;;;;11.61;65.63;97906.72;4896781;29;20024;-77
2021/05/17 07:03:51;;;;;;;2.05;0.60;;;;;;;11.73;65.39;97907.09;4896752;29;20057;-76
2021/05/17 07:06:22;;;;;;;6.75;4.10;;;;;;;11.77;65.08;97905.25;4896651;29;20028;-76
2021/05/17 07:12:20;;;;;;;0.60;0.60;;;;;;;12.24;63.25;97910.44;4896545;29;20529;-75
2021/05/17 07:14:26;;;;;;;1.92;0.70;;;;;;;12.20;62.81;97907.09;4900666;29;20122;-74
2021/05/17 07:16:52;;;;;;;2.67;0.65;;;;;;;12.19;62.99;97923.59;4915149;29;20421;-76
2021/05/17 07:19:17;;;;;;;2.28;0.52;;;;;;;12.37;63.34;97916.84;4914588;29;20024;-77
2021/05/17 07:24:28;;;;;;;0.98;0.50;;;;;;;12.52;60.97;97913.66;4915670;29;20079;-76
2021/05/17 07:26:54;;;;;;;4.88;0.70;;;;;;;12.72;61.31;97917.22;4915222;29;20020;-76
2021/05/17 07:29:20;;;;;;;1.42;0.60;;;;;;;13.06;61.03;97911.47;4915322;29;20402;-78
2021/05/17 07:31:46;;;;;;;1.55;0.50;;;;;;;12.86;59.42;97920.06;4915065;29;20028;-78
2021/05/17 07:34:12;;;;;;;12.25;7.60;;;;;;;12.77;60.66;97921.31;4914735;29;20048;-77
2021/05/17 07:36:37;;;;;;;2.80;0.85;;;;;;;12.48;60.39;97919.88;4915306;29;20058;-76
2021/05/17 07:39:03;;;;;;;1.25;0.50;;;;;;;12.28;61.69;97927.56;4915245;29;20038;-77
2021/05/17 07:41:29;;;;;;;1.65;0.50;;;;;;;12.21;62.70;97931.31;4916910;29;20056;-78
2021/05/17 07:43:54;;;;;;;0.65;0.65;;;;;;;12.63;62.06;97930.56;4918522;29;20056;-78
2021/05/17 07:46:20;;;;;;;2.15;0.57;;;;;;;13.22;60.03;97922.09;4918250;29;20599;-76
2021/05/17 07:51:29;;;;;;;6.05;0.60;;;;;;;14.35;55.91;97925.66;4918953;29;20120;-77
2021/05/17 07:53:54;;;;;;;1.02;0.40;;;;;;;14.03;56.60;97927.19;4918809;29;20107;-76
2021/05/17 07:56:20;;;;;;;1.65;0.77;;;;;;;14.54;55.74;97928.28;4917539;29;20035;-76
2021/05/17 07:58:45;;;;;;;1.02;0.63;;;;;;;16.44;49.74;97918.53;4911518;29;20028;-76
2021/05/17 08:01:11;;;;;;;1.58;0.63;;;;;;;15.66;51.99;97925.34;4899745;29;20463;-76
2021/05/17 08:03:38;;;;;;;3.90;2.22;;;;;;;15.37;52.30;97934.63;4899817;29;20036;-74
2021/05/17 08:06:03;;;;;;;1.80;0.60;;;;;;;15.20;53.51;97932.91;4899429;29;20092;-76
2021/05/17 08:08:29;;;;;;;1.50;0.60;;;;;;;16.17;52.21;97929.56;4917477;29;20016;-77
2021/05/17 08:10:54;;;;;;;3.40;0.80;;;;;;;16.36;50.79;97925.94;4918659;29;20083;-78
2021/05/17 08:13:20;;;;;;;3.35;0.88;;;;;;;17.08;49.50;97922.75;4915934;29;20028;-77
2021/05/17 08:15:45;;;;;;;3.03;1.90;;;;;;;17.85;46.07;97923.47;4913710;29;20024;-77
2021/05/17 08:18:11;;;;;;;3.70;0.80;;;;;;;18.09;45.02;97921.94;4918000;29;20024;-77
2021/05/17 08:20:36;;;;;;;2.50;0.80;;;;;;;16.15;48.67;97931.44;4917583;29;20027;-77
2021/05/17 08:23:02;;;;;;;0.40;0.40;;;;;;;15.33;50.46;97930.53;4918354;29;20114;-77
2021/05/17 08:25:27;;;;;;;2.53;0.65;;;;;;;15.77;50.14;97922.19;4918488;29;20036;-77
2021/05/17 08:27:54;;;;;;;5.35;0.82;;;;;;;15.77;50.86;97927.41;4918092;29;20017;-78
2021/05/17 08:30:21;;;;;;;1.80;0.93;;;;;;;15.47;50.39;97935.84;4915025;29;20137;-78
2021/05/17 08:32:46;;;;;;;2.70;0.52;;;;;;;15.27;50.13;97928.19;4917523;29;20414;-75
2021/05/17 08:35:11;;;;;;;9.65;4.20;;;;;;;16.68;47.01;97932.84;4917947;29;20024;-75
2021/05/17 08:37:37;;;;;;;4.03;1.05;;;;;;;17.31;45.36;97926.66;4917778;29;20115;-77
2021/05/17 08:40:03;;;;;;;1.17;0.63;;;;;;;17.66;45.47;97921.91;4917761;29;20031;-77
2021/05/17 08:42:29;;;;;;;1.65;0.60;;;;;;;17.93;42.98;97923.81;4917289;29;20034;-77
2021/05/17 08:44:54;;;;;;;5.82;0.63;;;;;;;19.37;41.65;97925.06;4917567;29;20023;-77
2021/05/17 08:47:20;;;;;;;0.77;0.52;;;;;;;18.06;44.02;97932.63;4917631;29;20578;-78
2021/05/17 08:49:45;;;;;;;1.48;0.50;;;;;;;17.13;45.59;97927.72;4917779;29;20541;-77
2021/05/17 08:52:11;;;;;;;5.85;1.02;;;;;;;16.18;46.96;97936.47;4917312;29;20024;-76
2021/05/17 08:54:36;;;;;;;2.38;0.60;;;;;;;15.83;47.68;97937.53;4916401;29;20489;-76
2021/05/17 08:57:02;;;;;;;3.38;0.60;;;;;;;17.70;43.64;97926.03;4917290;29;20483;-76
2021/05/17 08:59:28;;;;;;;4.35;0.70;;;;;;;18.69;41.29;97923.41;4917597;29;20035;-76
2021/05/17 09:01:53;;;;;;;0.52;0.52;;;;;;;18.72;42.24;97925.88;4917632;29;20032;-76
2021/05/17 09:04:19;;;;;;;2.78;0.68;;;;;;;18.40;42.40;97920.84;4917442;29;20032;-77
2021/05/17 09:06:55;;;;;;;0.65;0.50;;;;;;;17.24;43.95;97929.72;4916382;29;20020;-76
2021/05/17 09:09:30;;;;;;;0.95;0.68;;;;;;;17.72;43.60;97929.41;4917452;29;20032;-76
2021/05/17 09:12:01;;;;;;;3.03;0.60;;;;;;;17.14;46.06;97929.41;4917508;29;20039;-76
2021/05/17 09:14:27;;;;;;;4.90;0.95;;;;;;;17.98;43.57;97921.75;4917326;29;20028;-77
2021/05/17 09:17:11;;;;;;;1.42;0.47;;;;;;;18.13;42.99;97925.19;4916791;29;20055;-77
2021/05/17 09:19:41;;;;;;;3.28;0.75;;;;;;;17.21;43.47;97920.25;4916634;29;20028;-76
2021/05/17 09:22:10;;;;;;;1.02;0.43;;;;;;;17.83;42.74;97923.53;4916963;29;20490;-76
2021/05/17 09:24:37;;;;;;;1.55;0.82;;;;;;;17.77;44.30;97928.31;4915892;29;20032;-76
2021/05/17 09:27:03;;;;;;;1.35;0.55;;;;;;;18.63;41.52;97923.78;4916682;29;20027;-76
2021/05/17 09:29:28;;;;;;;2.78;0.70;;;;;;;18.68;41.26;97927.84;4916116;29;20040;-77
2021/05/17 09:31:55;;;;;;;0.88;0.50;;;;;;;19.49;40.30;97921.63;4916784;29;20055;-77
2021/05/17 09:34:36;;;;;;;1.58;1.00;;;;;;;17.37;44.12;97930.69;4916958;29;20445;-76
2021/05/17 09:37:02;;;;;;;1.00;0.50;;;;;;;17.95;43.77;97935.06;4916658;29;20028;-76
2021/05/17 09:39:28;;;;;;;1.15;0.70;;;;;;;17.05;45.38;97930.78;4916862;29;20036;-76
2021/05/17 09:41:56;;;;;;;0.93;0.52;;;;;;;16.00;48.94;97939.22;4915833;29;20034;-76
2021/05/17 09:44:27;;;;;;;0.88;0.47;;;;;;;15.23;51.93;97951.03;4916787;29;20067;-76
2021/05/17 09:47:14;;;;;;;2.47;0.52;;;;;;;15.35;52.28;97949.53;4899701;29;20111;-76
2021/05/17 09:49:42;;;;;;;0.47;0.47;;;;;;;15.77;52.71;97945.69;4916759;29;20450;-76
2021/05/17 09:52:21;;;;;;;7.55;5.13;;;;;;;16.27;52.01;97955.22;4916280;29;20040;-76
2021/05/17 09:54:55;;;;;;;1.55;0.60;;;;;;;16.33;51.90;97947.03;4916197;29;20030;-76
2021/05/17 09:57:46;;;;;;;0.57;0.40;;;;;;;16.40;51.56;97943.16;4916262;29;20044;-76
2021/05/17 10:00:14;;;;;;;4.63;0.70;;;;;;;17.02;51.15;97945.81;4916427;29;20091;-76
2021/05/17 10:02:42;;;;;;;1.30;0.90;;;;;;;17.11;49.67;97935.66;4916530;29;20067;-76
2021/05/17 10:05:13;;;;;;;2.45;1.27;;;;;;;17.01;49.58;97929.25;4912626;29;20393;-77
2021/05/17 10:07:38;;;;;;;4.82;0.60;;;;;;;16.58;48.31;97931.66;4913703;29;20430;-77
2021/05/17 10:10:05;;;;;;;1.45;0.65;;;;;;;15.71;50.53;97948.59;4881042;29;20068;-76
2021/05/17 10:12:31;;;;;;;1.15;0.60;;;;;;;14.62;53.75;97969.66;4915956;29;20054;-76
2021/05/17 10:14:57;;;;;;;0.77;0.55;;;;;;;14.72;54.57;97957.84;4916264;29;20051;-76
2021/05/17 10:17:22;;;;;;;2.65;0.50;;;;;;;14.78;53.82;97949.72;4915086;29;20080;-76
2021/05/17 10:19:48;;;;;;;9.10;5.45;;;;;;;15.56;52.99;97948.44;4899322;29;20025;-76
2021/05/17 10:22:14;;;;;;;1.27;0.80;;;;;;;15.53;53.59;97948.63;4916092;29;20023;-76
2021/05/17 10:24:39;;;;;;;0.77;0.40;;;;;;;15.76;52.30;97951.81;4916168;29;20028;-77
2021/05/17 10:27:06;;;;;;;2.65;1.00;;;;;;;16.22;51.39;97949.38;4915418;29;20470;-71
2021/05/17 10:29:35;;;;;;;1.75;0.77;;;;;;;16.00;51.14;97955.75;4929036;23;20051;-72
2021/05/17 10:32:02;;;;;;;0.90;0.43;;;;;;;16.82;49.71;97960.03;4916057;29;20469;-76
2021/05/17 10:34:28;;;;;;;2.75;1.98;;;;;;;17.89;46.49;97944.16;4915488;29;20024;-77
2021/05/17 10:37:00;;;;;;;2.97;0.50;;;;;;;18.10;45.91;97944.59;4915733;29;20385;-77
2021/05/17 10:39:42;;;;;;;0.65;0.40;;;;;;;19.62;43.04;97940.88;4914518;29;20043;-72
2021/05/17 10:46:36;;;;;;;1.00;0.50;;;;;;;17.75;47.07;97930.19;4899091;29;20092;-77
2021/05/17 10:47:48;;;;;;;2.05;1.10;;;;;;;16.05;50.88;97940.69;4895271;29;20044;-75
2021/05/17 10:50:21;;;;;;;1.15;0.60;;;;;;;15.52;52.73;97933.88;4895518;29;20036;-76
2021/05/17 10:52:47;;;;;;;2.97;1.05;;;;;;;15.03;55.04;97944.16;4894423;29;20026;-75
2021/05/17 10:55:16;;;;;;;2.55;1.10;;;;;;;14.54;56.70;97949.13;4895734;29;20481;-76
2021/05/17 10:58:07;;;;;;;1.03;0.60;;;;;;;13.97;64.90;97984.72;4895282;29;20037;-77
2021/05/17 11:00:35;;;;;;;6.30;1.80;;;;;;;12.13;73.39;97995.69;4895044;29;20036;-76
2021/05/17 11:03:25;;;;;;;4.13;1.02;;;;;;;11.16;78.66;98011.13;4877593;29;20032;-71
2021/05/17 11:05:54;;;;;;;0.93;0.70;;;;;;;11.11;79.07;97998.31;4895660;29;20047;-71
2021/05/17 11:08:19;;;;;;;0.80;0.70;;;;;;;11.28;81.83;97984.81;4878729;29;20489;-75
2021/05/17 11:10:52;;;;;;;2.42;0.70;;;;;;;11.85;79.86;97986.31;4895591;29;20049;-76
2021/05/17 11:13:20;;;;;;;2.13;1.00;;;;;;;14.26;73.28;97972.16;4895261;29;20057;-75
2021/05/17 11:15:53;;;;;;;6.68;1.35;;;;;;;15.15;67.82;97956.59;4895140;29;20028;-77
2021/05/17 11:18:27;;;;;;;1.65;0.60;;;;;;;17.93;60.45;97950.03;4899061;29;20068;-72
2021/05/17 11:20:58;;;;;;;4.50;0.70;;;;;;;18.50;56.50;97945.56;4899271;29;20028;-75
2021/05/17 11:23:26;;;;;;;1.15;0.70;;;;;;;19.22;53.41;97937.44;4899295;29;20538;-77
2021/05/17 11:26:09;;;;;;;1.80;0.80;;;;;;;20.61;51.09;97935.72;4898296;29;20036;-77
2021/05/17 11:28:43;;;;;;;3.08;0.75;;;;;;;21.68;47.87;97930.38;4898610;29;20020;-76
2021/05/17 11:31:17;;;;;;;2.05;0.80;;;;;;;21.34;48.90;97929.47;4897000;29;20044;-76
2021/05/17 11:34:01;;;;;;;1.42;0.85;;;;;;;20.43;46.57;97931.72;4897495;29;20120;-77
2021/05/17 11:36:43;;;;;;;1.40;0.60;;;;;;;19.24;48.91;97923.28;4897058;29;20096;-76
2021/05/17 11:39:17;;;;;;;1.75;0.57;;;;;;;19.49;50.88;97924.25;4897767;29;20147;-72
2021/05/17 11:41:44;;;;;;;0.70;0.65;;;;;;;16.98;52.66;97941.69;4898870;29;20529;-71
2021/05/17 11:44:33;;;;;;;3.28;0.77;;;;;;;15.67;56.33;97954.00;4898829;29;20040;-71
2021/05/17 11:47:01;;;;;;;1.83;0.98;;;;;;;15.12;58.45;97956.75;4898805;29;20091;-71
2021/05/17 11:49:28;;;;;;;2.22;0.80;;;;;;;15.09;60.30;97962.13;4898183;29;20127;-74
2021/05/17 11:51:59;;;;;;;1.65;0.70;;;;;;;14.99;63.39;97966.13;4899416;29;20188;-74
2021/05/17 11:54:32;;;;;;;2.53;0.80;;;;;;;14.27;66.86;97979.09;4898659;29;20033;-73
2021/05/17 11:57:00;;;;;;;1.48;0.60;;;;;;;12.83;69.55;97995.59;4897352;29;20039;-74
2021/05/17 11:59:26;;;;;;;1.65;1.38;;;;;;;12.14;74.68;97997.41;4898563;29;20486;-73
2021/05/17 12:02:18;;;;;;;1.45;1.10;;;;;;;11.77;73.61;97989.13;4897735;29;20394;-74
2021/05/17 12:04:45;;;;;;;2.20;1.30;;;;;;;11.78;72.95;97997.78;4894050;29;20147;-74
2021/05/17 12:07:14;;;;;;;2.97;1.00;;;;;;;11.62;73.51;98004.41;4898380;29;20743;-73
2021/05/17 12:09:52;;;;;;;4.05;1.02;;;;;;;12.34;73.82;98015.69;4898257;29;20043;-74
2021/05/17 12:12:23;;;;;;;0.85;0.55;;;;;;;12.69;72.55;98008.28;4898063;29;20037;-74
2021/05/17 12:14:51;;;;;;;3.38;0.90;;;;;;;13.98;70.64;97988.22;4880971;29;20028;-73
2021/05/17 12:17:27;;;;;;;1.55;0.60;;;;;;;14.43;69.80;97985.25;4898205;29;20036;-74
2021/05/17 12:19:52;;;;;;;2.00;1.02;;;;;;;14.57;69.03;97982.06;4881359;29;20028;-78
2021/05/17 12:22:24;;;;;;;3.13;1.38;;;;;;;15.26;66.80;97970.88;4881319;29;20043;-77
2021/05/17 12:24:59;;;;;;;3.03;0.70;;;;;;;15.92;62.52;97968.41;4897247;29;20205;-77
2021/05/17 12:27:25;;;;;;;1.50;0.70;;;;;;;16.23;61.33;97977.22;4897079;29;20934;-78
2021/05/17 12:30:04;;;;;;;4.13;0.75;;;;;;;16.32;60.92;97971.50;4898108;29;20139;-77
2021/05/17 12:32:33;;;;;;;3.97;0.70;;;;;;;15.68;64.89;97971.34;4898213;29;20044;-77
2021/05/17 12:35:01;;;;;;;1.10;0.70;;;;;;;15.34;65.12;97971.34;4898089;29;20037;-77
2021/05/17 12:37:32;;;;;;;1.75;0.80;;;;;;;15.20;65.76;97979.88;4897370;29;20501;-78
2021/05/17 12:40:13;;;;;;;5.45;1.30;;;;;;;16.08;63.39;97969.25;4880750;29;20066;-75
2021/05/17 12:42:39;;;;;;;0.85;0.70;;;;;;;15.96;61.85;97963.84;4898076;29;20028;-71
2021/05/17 12:45:08;;;;;;;1.02;0.80;;;;;;;16.26;61.39;97966.59;4897865;29;20055;-71
2021/05/17 12:47:41;;;;;;;2.17;0.80;;;;;;;17.13;58.43;97962.59;4897011;29;20028;-71
2021/05/17 12:50:32;;;;;;;1.35;0.57;;;;;;;17.10;54.55;97960.13;4897359;29;20036;-72
2021/05/17 12:53:06;;;;;;;0.40;0.40;;;;;;;16.45;51.07;97956.81;4880889;29;20412;-71
2021/05/17 12:55:49;;;;;;;0.80;0.40;;;;;;;16.64;52.32;97960.13;4897613;29;20512;-71
2021/05/17 12:58:26;;;;;;;3.30;0.30;;;;;;;16.44;51.22;97960.38;4897362;29;20039;-72
2021/05/17 13:00:53;;;;;;;1.20;0.30;;;;;;;16.65;52.02;97963.56;4896563;29;20102;-71
2021/05/17 13:03:18;;;;;;;0.95;0.40;;;;;;;16.63;50.57;97968.91;4897692;29;20070;-74
2021/05/17 13:06:10;;;;;;;0.40;0.40;;;;;;;16.41;50.14;97971.84;4897339;29;20033;-74
2021/05/17 13:08:36;;;;;;;4.15;0.38;;;;;;;15.99;48.70;97980.19;4895287;29;20124;-71
2021/05/17 13:11:02;;;;;;;2.17;0.40;;;;;;;15.86;48.87;97976.56;4894523;29;20033;-71
2021/05/17 13:13:44;;;;;;;0.40;0.40;;;;;;;15.85;49.88;97969.63;4896488;29;20553;-74
2021/05/17 13:16:39;;;;;;;1.30;0.30;;;;;;;16.33;49.79;97962.72;4897531;29;20051;-71
2021/05/17 13:30:17;;;;;;;1.35;0.30;;;;;;;16.83;47.71;97946.03;4896707;29;20578;-71
2021/05/17 13:32:47;;;;;;;1.75;0.40;;;;;;;17.07;46.62;97949.88;4896945;29;20178;-71
2021/05/17 13:35:14;;;;;;;2.60;0.40;;;;;;;17.23;46.87;97948.97;4896042;29;20028;-71
2021/05/17 13:37:40;;;;;;;1.17;0.47;;;;;;;17.52;46.25;97942.88;4896646;29;20024;-72
2021/05/17 13:40:10;;;;;;;1.52;0.55;;;;;;;17.52;45.57;97924.53;4896445;29;20033;-71
2021/05/17 13:42:35;;;;;;;;;;;;;;;17.39;45.48;97928.81;4895420;29;20040;-71
2021/05/17 13:45:01;;;;;;;0.38;0.30;;;;;;;17.25;45.80;97915.69;4896448;29;19915;-71
2021/05/17 13:47:26;;;;;;;0.60;0.32;;;;;;;16.51;46.18;97930.31;4895854;29;20032;-74
2021/05/17 13:49:52;;;;;;;0.45;0.43;;;;;;;16.10;46.87;97935.19;4896481;29;20115;-74
2021/05/17 13:52:17;;;;;;;0.52;0.32;;;;;;;15.91;47.67;97943.19;4896701;29;20036;-72
2021/05/17 13:54:43;;;;;;;0.90;0.40;;;;;;;16.10;48.41;97946.53;4896406;29;20064;-71
2021/05/17 13:57:09;;;;;;;2.63;0.43;;;;;;;15.89;48.44;97952.88;4895799;29;20052;-74
2021/05/17 13:59:34;;;;;;;0.43;0.40;;;;;;;15.85;48.91;97956.56;4896064;29;20039;-74
2021/05/17 14:02:00;;;;;;;0.75;0.40;;;;;;;15.79;49.84;97972.56;4896636;29;20033;-74
2021/05/17 14:04:27;;;;;;;3.72;0.60;;;;;;;14.84;56.14;97998.13;4896291;29;20505;-74
2021/05/17 14:06:52;;;;;;;0.40;0.40;;;;;;;14.04;61.01;98009.59;4896313;29;20036;-73
2021/05/17 14:09:19;;;;;;;1.35;0.50;;;;;;;13.95;64.38;98012.63;4895086;29;20028;-73
2021/05/17 14:11:45;;;;;;;0.73;0.50;;;;;;;14.51;65.56;98006.66;4896106;29;21215;-73
2021/05/17 14:14:11;;;;;;;1.02;0.50;;;;;;;15.22;62.46;98013.72;4896199;29;20502;-73
2021/05/17 14:16:37;;;;;;;0.60;0.50;;;;;;;15.26;59.76;98004.81;4896089;29;20060;-74
2021/05/17 14:19:03;;;;;;;2.13;0.35;;;;;;;15.34;58.63;98002.69;4896301;29;20060;-74
2021/05/17 14:21:28;;;;;;;6.28;0.77;;;;;;;15.43;57.24;97994.38;4895149;29;20040;-74
2021/05/17 14:23:53;;;;;;;1.95;0.60;;;;;;;15.34;57.33;97992.25;4896167;29;20119;-71
2021/05/17 14:26:20;;;;;;;2.15;0.68;;;;;;;15.21;57.79;97981.56;4895946;29;20033;-74
2021/05/17 14:28:46;;;;;;;3.88;0.65;;;;;;;14.95;57.51;97995.88;4895843;29;20032;-74
2021/05/17 14:31:13;;;;;;;0.65;0.30;;;;;;;15.51;56.64;97997.44;4895769;29;20040;-74
2021/05/17 14:33:39;;;;;;;3.50;0.50;;;;;;;15.75;56.33;97997.16;4895022;29;20035;-72
2021/05/17 14:36:05;;;;;;;1.40;0.63;;;;;;;15.88;55.14;97999.06;4895906;29;20024;-71
2021/05/17 14:38:30;;;;;;;3.00;0.60;;;;;;;15.81;54.89;97996.81;4895612;29;21065;-71
2021/05/17 14:40:56;;;;;;;0.40;0.40;;;;;;;15.42;50.95;97995.28;4895803;29;20494;-71
2021/05/17 14:43:21;;;;;;;1.70;0.77;;;;;;;15.32;50.97;98004.50;4895624;29;20107;-71
2021/05/17 14:45:46;;;;;;;6.97;0.73;;;;;;;15.00;51.09;98024.34;4894371;29;20066;-74
2021/05/17 14:48:12;;;;;;;0.50;0.40;;;;;;;14.49;51.85;98021.50;4895436;29;20032;-71
2021/05/17 14:50:37;;;;;;;0.85;0.30;;;;;;;13.89;53.64;98028.53;4895177;29;21360;-74
2021/05/17 14:53:02;;;;;;;5.28;0.47;;;;;;;13.69;56.30;98058.00;4895728;29;20505;-73
2021/05/17 14:55:28;;;;;;;2.50;0.40;;;;;;;13.53;57.09;98063.00;4894316;29;20033;-73
2021/05/17 14:57:53;;;;;;;2.50;0.50;;;;;;;13.13;63.13;98089.75;4895287;29;20025;-73
2021/05/17 15:00:20;;;;;;;1.38;0.70;;;;;;;12.54;68.07;98088.53;4895558;29;20032;-73
2021/05/17 15:02:46;;;;;;;2.45;0.80;;;;;;;12.02;71.89;98093.00;4895430;29;20036;-74
2021/05/17 15:05:14;;;;;;;0.57;0.50;;;;;;;11.81;74.51;98088.50;4895647;29;20032;-73
2021/05/17 15:07:41;;;;;;;0.55;0.52;;;;;;;11.77;75.70;98099.91;4894478;29;20029;-73
2021/05/17 15:10:08;;;;;;;0.50;0.50;;;;;;;11.91;77.21;98100.31;4895373;29;20450;-78
2021/05/17 15:12:34;;;;;;;1.55;0.70;;;;;;;12.09;76.11;98104.88;4895191;29;20083;-75
2021/05/17 15:14:59;;;;;;;1.23;0.50;;;;;;;12.45;74.91;98104.44;4894693;29;21671;-75
2021/05/17 15:17:24;;;;;;;1.17;0.75;;;;;;;13.10;72.10;98103.75;4892498;29;20111;-75
2021/05/17 15:19:50;;;;;;;2.70;0.50;;;;;;;13.43;69.15;98097.28;4893093;29;20040;-75
2021/05/17 15:22:17;;;;;;;2.10;0.68;;;;;;;13.72;68.96;98089.09;4893281;29;20033;-74
2021/05/17 15:24:42;;;;;;;2.15;0.60;;;;;;;14.01;68.36;98085.25;4895084;29;20127;-74
2021/05/17 15:27:08;;;;;;;1.15;0.60;;;;;;;14.11;67.54;98085.72;4895002;29;20088;-75
2021/05/17 15:29:33;;;;;;;1.95;0.70;;;;;;;13.92;69.06;98088.25;4893974;29;20483;-74
2021/05/17 15:31:59;;;;;;;0.88;0.63;;;;;;;13.96;70.34;98087.22;4894932;29;20033;-75
2021/05/17 15:34:24;;;;;;;0.73;0.50;;;;;;;13.95;68.26;98089.91;4895106;29;20566;-75
2021/05/17 15:36:50;;;;;;;5.95;0.60;;;;;;;13.81;66.08;98096.53;4895132;29;20024;-75
2021/05/17 15:39:15;;;;;;;2.03;0.52;;;;;;;13.93;67.09;98095.19;4878063;29;20502;-77
2021/05/17 15:41:41;;;;;;;3.00;0.80;;;;;;;14.06;66.57;98096.34;4878235;29;20451;-78
2021/05/17 15:44:06;;;;;;;4.45;0.88;;;;;;;14.44;65.99;98091.22;4895091;29;20067;-74
2021/05/17 15:46:32;;;;;;;0.93;0.50;;;;;;;14.61;63.83;98091.34;4894961;29;20100;-75
2021/05/17 15:48:59;;;;;;;1.73;0.50;;;;;;;14.60;62.16;98088.78;4894984;29;20036;-74
2021/05/17 15:51:25;;;;;;;1.52;0.50;;;;;;;14.66;61.79;98085.91;4894936;29;20029;-75
2021/05/17 15:53:51;;;;;;;1.25;0.60;;;;;;;14.53;60.93;98090.84;4894830;29;20028;-75
2021/05/17 15:56:16;;;;;;;1.02;0.63;;;;;;;14.58;59.62;98083.66;4894941;29;20446;-75
2021/05/17 15:58:42;;;;;;;0.45;0.45;;;;;;;14.79;59.44;98083.56;4894833;29;20450;-74
2021/05/17 16:01:12;;;;;;;0.85;0.52;;;;;;;14.62;59.76;98086.97;4895138;29;20025;-74
2021/05/17 16:03:39;;;;;;;1.23;0.50;;;;;;;14.74;61.33;98085.56;4898385;29;20043;-74
2021/05/17 16:06:09;;;;;;;0.70;0.70;;;;;;;14.70;60.95;98079.66;4898291;29;20036;-77
2021/05/17 16:08:34;;;;;;;4.30;0.50;;;;;;;14.69;59.33;98082.31;4898712;29;20036;-75
2021/05/17 16:11:02;;;;;;;12.60;2.42;;;;;;;14.53;59.87;98083.00;4898411;29;20121;-77
2021/05/17 16:18:44;;;;;;;0.60;0.60;;;;;;;13.76;68.71;98095.88;4898424;29;20036;-74
2021/05/17 16:21:26;;;;;;;0.80;0.50;;;;;;;13.81;68.97;98099.13;4898624;29;20040;-76
2021/05/17 16:23:56;;;;;;;0.80;0.50;;;;;;;14.03;67.78;98090.44;4898396;29;20042;-75